sensor_id;sensor_type;location;lat;lon;timestamp;P1;durP1;ratioP1;P2;durP2;ratioP2
49548;SDS011;35450;44.518;7.466;2022-10-16T00:01:13;63.70;;;40.28;;
49548;SDS011;35450;44.518;7.466;2022-10-16T00:04:17;60.38;;;39.35;;
49548;SDS011;35450;44.518;7.466;2022-10-16T00:07:21;57.15;;;38.17;;
49548;SDS011;35450;44.518;7.466;2022-10-16T00:10:25;61.70;;;38.38;;
49548;SDS011;35450;44.518;7.466;2022-10-16T00:13:29;60.08;;;37.45;;
49548;SDS011;35450;44.518;7.466;2022-10-16T00:16:34;57.60;;;36.92;;
49548;SDS011;35450;44.518;7.466;2022-10-16T00:19:38;63.67;;;38.60;;
49548;SDS011;35450;44.518;7.466;2022-10-16T00:22:42;63.53;;;39.33;;
49548;SDS011;35450;44.518;7.466;2022-10-16T00:25:56;65.15;;;38.67;;
49548;SDS011;35450;44.518;7.466;2022-10-16T00:29:02;57.15;;;38.25;;
49548;SDS011;35450;44.518;7.466;2022-10-16T00:32:07;58.22;;;36.55;;
49548;SDS011;35450;44.518;7.466;2022-10-16T00:35:11;60.63;;;38.13;;
49548;SDS011;35450;44.518;7.466;2022-10-16T00:38:14;61.92;;;37.85;;
49548;SDS011;35450;44.518;7.466;2022-10-16T00:41:19;57.67;;;38.55;;
49548;SDS011;35450;44.518;7.466;2022-10-16T00:47:47;72.65;;;41.22;;
49548;SDS011;35450;44.518;7.466;2022-10-16T00:50:54;65.32;;;40.42;;
49548;SDS011;35450;44.518;7.466;2022-10-16T00:54:00;66.45;;;41.28;;
49548;SDS011;35450;44.518;7.466;2022-10-16T00:57:07;61.50;;;40.47;;
49548;SDS011;35450;44.518;7.466;2022-10-16T01:00:13;63.85;;;40.25;;
49548;SDS011;35450;44.518;7.466;2022-10-16T01:03:23;63.03;;;39.80;;
49548;SDS011;35450;44.518;7.466;2022-10-16T01:16:26;61.10;;;41.08;;
49548;SDS011;35450;44.518;7.466;2022-10-16T01:19:50;64.97;;;42.93;;
49548;SDS011;35450;44.518;7.466;2022-10-16T01:30:22;68.30;;;43.67;;
49548;SDS011;35450;44.518;7.466;2022-10-16T01:33:35;69.82;;;44.00;;
49548;SDS011;35450;44.518;7.466;2022-10-16T01:36:47;64.22;;;41.97;;
49548;SDS011;35450;44.518;7.466;2022-10-16T01:39:56;69.32;;;40.45;;
49548;SDS011;35450;44.518;7.466;2022-10-16T01:43:22;57.55;;;37.58;;
49548;SDS011;35450;44.518;7.466;2022-10-16T01:46:34;52.10;;;35.53;;
49548;SDS011;35450;44.518;7.466;2022-10-16T01:49:41;66.30;;;40.22;;
49548;SDS011;35450;44.518;7.466;2022-10-16T01:52:48;70.10;;;40.78;;
49548;SDS011;35450;44.518;7.466;2022-10-16T01:55:54;59.25;;;40.03;;
49548;SDS011;35450;44.518;7.466;2022-10-16T01:59:02;59.58;;;37.90;;
49548;SDS011;35450;44.518;7.466;2022-10-16T02:02:19;61.83;;;37.33;;
49548;SDS011;35450;44.518;7.466;2022-10-16T02:06:11;67.35;;;39.80;;
49548;SDS011;35450;44.518;7.466;2022-10-16T02:09:00;66.63;;;40.53;;
49548;SDS011;35450;44.518;7.466;2022-10-16T02:15:46;63.35;;;40.38;;
49548;SDS011;35450;44.518;7.466;2022-10-16T02:18:50;67.55;;;43.08;;
49548;SDS011;35450;44.518;7.466;2022-10-16T02:21:56;68.50;;;43.47;;
49548;SDS011;35450;44.518;7.466;2022-10-16T02:28:27;72.80;;;44.20;;
49548;SDS011;35450;44.518;7.466;2022-10-16T02:31:41;66.65;;;44.78;;
49548;SDS011;35450;44.518;7.466;2022-10-16T02:34:50;69.28;;;42.95;;
49548;SDS011;35450;44.518;7.466;2022-10-16T02:37:55;70.82;;;47.50;;
49548;SDS011;35450;44.518;7.466;2022-10-16T02:40:59;73.10;;;44.90;;
49548;SDS011;35450;44.518;7.466;2022-10-16T02:44:04;75.95;;;47.35;;
49548;SDS011;35450;44.518;7.466;2022-10-16T02:47:08;69.55;;;45.50;;
49548;SDS011;35450;44.518;7.466;2022-10-16T02:50:12;75.25;;;45.35;;
49548;SDS011;35450;44.518;7.466;2022-10-16T02:53:16;71.07;;;44.63;;
49548;SDS011;35450;44.518;7.466;2022-10-16T02:56:20;61.25;;;38.83;;
49548;SDS011;35450;44.518;7.466;2022-10-16T02:59:23;59.15;;;35.58;;
49548;SDS011;35450;44.518;7.466;2022-10-16T03:02:27;56.30;;;35.30;;
49548;SDS011;35450;44.518;7.466;2022-10-16T03:05:31;50.60;;;33.50;;
49548;SDS011;35450;44.518;7.466;2022-10-16T03:08:35;64.22;;;36.38;;
49548;SDS011;35450;44.518;7.466;2022-10-16T03:11:39;53.30;;;35.25;;
49548;SDS011;35450;44.518;7.466;2022-10-16T03:14:43;56.72;;;37.50;;
49548;SDS011;35450;44.518;7.466;2022-10-16T03:17:47;58.28;;;36.70;;
49548;SDS011;35450;44.518;7.466;2022-10-16T03:20:52;62.80;;;39.42;;
49548;SDS011;35450;44.518;7.466;2022-10-16T03:23:56;62.28;;;39.28;;
49548;SDS011;35450;44.518;7.466;2022-10-16T03:27:00;64.70;;;38.63;;
49548;SDS011;35450;44.518;7.466;2022-10-16T03:30:04;75.03;;;41.35;;
49548;SDS011;35450;44.518;7.466;2022-10-16T03:33:09;60.03;;;38.95;;
49548;SDS011;35450;44.518;7.466;2022-10-16T03:36:13;63.78;;;40.17;;
49548;SDS011;35450;44.518;7.466;2022-10-16T03:39:17;68.40;;;39.13;;
49548;SDS011;35450;44.518;7.466;2022-10-16T03:42:21;65.25;;;40.30;;
49548;SDS011;35450;44.518;7.466;2022-10-16T03:45:25;62.78;;;41.05;;
49548;SDS011;35450;44.518;7.466;2022-10-16T03:48:30;61.88;;;40.65;;
49548;SDS011;35450;44.518;7.466;2022-10-16T03:51:35;58.83;;;38.55;;
49548;SDS011;35450;44.518;7.466;2022-10-16T03:54:39;62.85;;;37.67;;
49548;SDS011;35450;44.518;7.466;2022-10-16T03:57:43;59.30;;;37.60;;
49548;SDS011;35450;44.518;7.466;2022-10-16T04:00:47;65.22;;;36.30;;
49548;SDS011;35450;44.518;7.466;2022-10-16T04:03:51;55.22;;;37.05;;
49548;SDS011;35450;44.518;7.466;2022-10-16T04:06:55;55.25;;;35.22;;
49548;SDS011;35450;44.518;7.466;2022-10-16T04:09:59;55.28;;;35.20;;
49548;SDS011;35450;44.518;7.466;2022-10-16T04:13:03;55.80;;;34.90;;
49548;SDS011;35450;44.518;7.466;2022-10-16T04:16:07;56.20;;;35.08;;
49548;SDS011;35450;44.518;7.466;2022-10-16T04:19:11;63.95;;;35.22;;
49548;SDS011;35450;44.518;7.466;2022-10-16T04:22:15;53.70;;;33.83;;
49548;SDS011;35450;44.518;7.466;2022-10-16T04:25:19;55.17;;;34.95;;
49548;SDS011;35450;44.518;7.466;2022-10-16T04:28:23;51.80;;;34.72;;
49548;SDS011;35450;44.518;7.466;2022-10-16T04:31:27;57.80;;;34.40;;
49548;SDS011;35450;44.518;7.466;2022-10-16T04:34:31;61.80;;;37.28;;
49548;SDS011;35450;44.518;7.466;2022-10-16T04:37:35;59.80;;;36.15;;
49548;SDS011;35450;44.518;7.466;2022-10-16T04:40:39;62.42;;;36.40;;
49548;SDS011;35450;44.518;7.466;2022-10-16T04:43:45;54.17;;;35.95;;
49548;SDS011;35450;44.518;7.466;2022-10-16T04:46:50;59.08;;;36.40;;
49548;SDS011;35450;44.518;7.466;2022-10-16T04:49:55;64.15;;;38.05;;
49548;SDS011;35450;44.518;7.466;2022-10-16T04:53:00;61.30;;;36.33;;
49548;SDS011;35450;44.518;7.466;2022-10-16T04:56:04;60.38;;;38.13;;
49548;SDS011;35450;44.518;7.466;2022-10-16T04:59:08;54.83;;;35.53;;
49548;SDS011;35450;44.518;7.466;2022-10-16T05:02:13;58.25;;;36.00;;
49548;SDS011;35450;44.518;7.466;2022-10-16T05:05:17;60.65;;;37.22;;
49548;SDS011;35450;44.518;7.466;2022-10-16T05:08:22;62.47;;;36.80;;
49548;SDS011;35450;44.518;7.466;2022-10-16T05:11:26;64.35;;;41.63;;
49548;SDS011;35450;44.518;7.466;2022-10-16T05:14:30;69.50;;;37.40;;
49548;SDS011;35450;44.518;7.466;2022-10-16T05:17:34;59.47;;;37.08;;
49548;SDS011;35450;44.518;7.466;2022-10-16T05:20:38;58.30;;;36.40;;
49548;SDS011;35450;44.518;7.466;2022-10-16T05:23:42;60.03;;;35.20;;
49548;SDS011;35450;44.518;7.466;2022-10-16T05:26:46;62.42;;;37.78;;
49548;SDS011;35450;44.518;7.466;2022-10-16T05:29:50;56.15;;;36.33;;
49548;SDS011;35450;44.518;7.466;2022-10-16T05:32:54;62.08;;;36.78;;
49548;SDS011;35450;44.518;7.466;2022-10-16T05:36:02;59.53;;;36.83;;
49548;SDS011;35450;44.518;7.466;2022-10-16T05:39:07;59.30;;;37.25;;
49548;SDS011;35450;44.518;7.466;2022-10-16T05:42:10;59.90;;;36.03;;
49548;SDS011;35450;44.518;7.466;2022-10-16T05:45:14;55.38;;;36.15;;
49548;SDS011;35450;44.518;7.466;2022-10-16T05:48:18;56.63;;;35.80;;
49548;SDS011;35450;44.518;7.466;2022-10-16T05:51:23;66.07;;;37.80;;
49548;SDS011;35450;44.518;7.466;2022-10-16T05:54:27;66.95;;;39.25;;
49548;SDS011;35450;44.518;7.466;2022-10-16T05:57:31;68.50;;;40.50;;
49548;SDS011;35450;44.518;7.466;2022-10-16T06:00:35;64.15;;;38.67;;
49548;SDS011;35450;44.518;7.466;2022-10-16T06:03:39;70.03;;;41.60;;
49548;SDS011;35450;44.518;7.466;2022-10-16T06:06:43;83.35;;;40.05;;
49548;SDS011;35450;44.518;7.466;2022-10-16T06:09:48;58.47;;;37.08;;
49548;SDS011;35450;44.518;7.466;2022-10-16T06:12:56;62.67;;;37.55;;
49548;SDS011;35450;44.518;7.466;2022-10-16T06:16:00;56.42;;;35.22;;
49548;SDS011;35450;44.518;7.466;2022-10-16T06:19:05;59.70;;;37.60;;
49548;SDS011;35450;44.518;7.466;2022-10-16T06:22:11;64.80;;;39.65;;
49548;SDS011;35450;44.518;7.466;2022-10-16T06:25:16;60.60;;;38.30;;
49548;SDS011;35450;44.518;7.466;2022-10-16T06:28:20;67.53;;;38.92;;
49548;SDS011;35450;44.518;7.466;2022-10-16T06:31:23;60.03;;;38.95;;
49548;SDS011;35450;44.518;7.466;2022-10-16T06:34:33;63.22;;;40.33;;
49548;SDS011;35450;44.518;7.466;2022-10-16T06:37:37;69.20;;;38.38;;
49548;SDS011;35450;44.518;7.466;2022-10-16T06:40:41;60.50;;;38.72;;
49548;SDS011;35450;44.518;7.466;2022-10-16T06:43:45;64.68;;;38.95;;
49548;SDS011;35450;44.518;7.466;2022-10-16T06:46:49;66.65;;;39.20;;
49548;SDS011;35450;44.518;7.466;2022-10-16T06:49:53;62.67;;;38.10;;
49548;SDS011;35450;44.518;7.466;2022-10-16T06:52:57;59.50;;;36.38;;
49548;SDS011;35450;44.518;7.466;2022-10-16T06:56:12;62.70;;;38.13;;
49548;SDS011;35450;44.518;7.466;2022-10-16T06:59:17;58.22;;;38.15;;
49548;SDS011;35450;44.518;7.466;2022-10-16T07:02:22;63.65;;;40.15;;
49548;SDS011;35450;44.518;7.466;2022-10-16T07:05:26;58.88;;;38.15;;
49548;SDS011;35450;44.518;7.466;2022-10-16T07:08:34;63.53;;;36.65;;
49548;SDS011;35450;44.518;7.466;2022-10-16T07:11:39;56.95;;;35.85;;
49548;SDS011;35450;44.518;7.466;2022-10-16T07:14:44;57.55;;;36.13;;
49548;SDS011;35450;44.518;7.466;2022-10-16T07:17:48;64.45;;;40.35;;
49548;SDS011;35450;44.518;7.466;2022-10-16T07:20:52;65.38;;;38.65;;
49548;SDS011;35450;44.518;7.466;2022-10-16T07:23:57;59.55;;;35.60;;
49548;SDS011;35450;44.518;7.466;2022-10-16T07:27:04;58.28;;;36.15;;
49548;SDS011;35450;44.518;7.466;2022-10-16T07:30:08;56.20;;;34.75;;
49548;SDS011;35450;44.518;7.466;2022-10-16T07:33:13;63.67;;;36.15;;
49548;SDS011;35450;44.518;7.466;2022-10-16T07:36:17;59.33;;;35.08;;
49548;SDS011;35450;44.518;7.466;2022-10-16T07:39:23;58.47;;;34.65;;
49548;SDS011;35450;44.518;7.466;2022-10-16T07:42:27;58.08;;;35.47;;
49548;SDS011;35450;44.518;7.466;2022-10-16T07:45:32;58.70;;;35.28;;
49548;SDS011;35450;44.518;7.466;2022-10-16T07:48:36;56.88;;;35.10;;
49548;SDS011;35450;44.518;7.466;2022-10-16T07:51:39;55.85;;;34.80;;
49548;SDS011;35450;44.518;7.466;2022-10-16T07:54:43;58.67;;;34.17;;
49548;SDS011;35450;44.518;7.466;2022-10-16T07:57:47;53.33;;;34.72;;
49548;SDS011;35450;44.518;7.466;2022-10-16T08:00:51;53.13;;;35.65;;
49548;SDS011;35450;44.518;7.466;2022-10-16T08:03:55;67.28;;;36.75;;
49548;SDS011;35450;44.518;7.466;2022-10-16T08:06:59;50.70;;;33.90;;
49548;SDS011;35450;44.518;7.466;2022-10-16T08:10:03;54.70;;;32.33;;
49548;SDS011;35450;44.518;7.466;2022-10-16T08:13:07;48.53;;;32.08;;
49548;SDS011;35450;44.518;7.466;2022-10-16T08:16:11;49.42;;;33.60;;
49548;SDS011;35450;44.518;7.466;2022-10-16T08:19:15;56.55;;;33.22;;
49548;SDS011;35450;44.518;7.466;2022-10-16T08:22:19;51.83;;;31.77;;
49548;SDS011;35450;44.518;7.466;2022-10-16T08:25:24;49.75;;;32.35;;
49548;SDS011;35450;44.518;7.466;2022-10-16T08:28:28;49.30;;;32.47;;
49548;SDS011;35450;44.518;7.466;2022-10-16T08:31:32;48.60;;;31.63;;
49548;SDS011;35450;44.518;7.466;2022-10-16T08:34:36;43.25;;;30.00;;
49548;SDS011;35450;44.518;7.466;2022-10-16T08:37:40;53.55;;;31.73;;
49548;SDS011;35450;44.518;7.466;2022-10-16T08:40:44;53.83;;;34.42;;
49548;SDS011;35450;44.518;7.466;2022-10-16T08:47:17;48.25;;;31.73;;
49548;SDS011;35450;44.518;7.466;2022-10-16T08:50:29;51.88;;;33.75;;
49548;SDS011;35450;44.518;7.466;2022-10-16T08:53:42;53.88;;;33.13;;
49548;SDS011;35450;44.518;7.466;2022-10-16T08:56:54;48.95;;;32.47;;
49548;SDS011;35450;44.518;7.466;2022-10-16T09:00:00;53.42;;;34.20;;
49548;SDS011;35450;44.518;7.466;2022-10-16T09:03:32;54.58;;;33.72;;
49548;SDS011;35450;44.518;7.466;2022-10-16T09:06:56;49.08;;;32.47;;
49548;SDS011;35450;44.518;7.466;2022-10-16T09:17:37;45.65;;;32.35;;
49548;SDS011;35450;44.518;7.466;2022-10-16T09:20:51;50.85;;;33.75;;
49548;SDS011;35450;44.518;7.466;2022-10-16T09:24:11;55.78;;;33.38;;
49548;SDS011;35450;44.518;7.466;2022-10-16T09:27:16;46.22;;;31.08;;
49548;SDS011;35450;44.518;7.466;2022-10-16T09:30:21;51.15;;;31.85;;
49548;SDS011;35450;44.518;7.466;2022-10-16T09:33:34;49.03;;;32.95;;
49548;SDS011;35450;44.518;7.466;2022-10-16T09:36:42;52.65;;;31.65;;
49548;SDS011;35450;44.518;7.466;2022-10-16T09:39:49;51.10;;;31.80;;
49548;SDS011;35450;44.518;7.466;2022-10-16T09:43:01;59.50;;;33.42;;
49548;SDS011;35450;44.518;7.466;2022-10-16T09:46:07;46.75;;;32.40;;
49548;SDS011;35450;44.518;7.466;2022-10-16T09:49:54;47.00;;;30.83;;
49548;SDS011;35450;44.518;7.466;2022-10-16T09:53:05;50.63;;;31.55;;
49548;SDS011;35450;44.518;7.466;2022-10-16T09:56:37;43.58;;;31.45;;
49548;SDS011;35450;44.518;7.466;2022-10-16T09:59:46;47.13;;;30.88;;
49548;SDS011;35450;44.518;7.466;2022-10-16T10:03:00;48.78;;;31.67;;
49548;SDS011;35450;44.518;7.466;2022-10-16T10:06:26;50.65;;;33.95;;
49548;SDS011;35450;44.518;7.466;2022-10-16T10:09:32;46.60;;;31.35;;
49548;SDS011;35450;44.518;7.466;2022-10-16T10:12:42;45.72;;;31.63;;
49548;SDS011;35450;44.518;7.466;2022-10-16T10:15:48;49.08;;;32.63;;
49548;SDS011;35450;44.518;7.466;2022-10-16T10:18:57;47.50;;;31.45;;
49548;SDS011;35450;44.518;7.466;2022-10-16T10:22:12;57.75;;;31.90;;
49548;SDS011;35450;44.518;7.466;2022-10-16T10:38:38;50.53;;;35.20;;
49548;SDS011;35450;44.518;7.466;2022-10-16T10:48:45;61.42;;;36.00;;
49548;SDS011;35450;44.518;7.466;2022-10-16T10:51:58;63.05;;;35.85;;
49548;SDS011;35450;44.518;7.466;2022-10-16T11:01:30;53.42;;;34.47;;
49548;SDS011;35450;44.518;7.466;2022-10-16T11:11:29;53.83;;;33.85;;
49548;SDS011;35450;44.518;7.466;2022-10-16T11:14:48;57.95;;;35.75;;
49548;SDS011;35450;44.518;7.466;2022-10-16T11:21:19;57.60;;;33.17;;
49548;SDS011;35450;44.518;7.466;2022-10-16T11:24:42;54.60;;;34.05;;
49548;SDS011;35450;44.518;7.466;2022-10-16T11:34:47;52.47;;;34.30;;
49548;SDS011;35450;44.518;7.466;2022-10-16T11:37:56;51.92;;;35.05;;
49548;SDS011;35450;44.518;7.466;2022-10-16T11:41:15;60.03;;;34.83;;
49548;SDS011;35450;44.518;7.466;2022-10-16T11:47:48;55.40;;;35.80;;
49548;SDS011;35450;44.518;7.466;2022-10-16T11:51:06;54.20;;;36.13;;
49548;SDS011;35450;44.518;7.466;2022-10-16T11:54:22;61.75;;;35.40;;
49548;SDS011;35450;44.518;7.466;2022-10-16T11:57:49;53.55;;;35.58;;
49548;SDS011;35450;44.518;7.466;2022-10-16T12:01:03;58.05;;;34.60;;
49548;SDS011;35450;44.518;7.466;2022-10-16T12:04:42;61.67;;;38.03;;
49548;SDS011;35450;44.518;7.466;2022-10-16T12:07:54;57.72;;;38.10;;
49548;SDS011;35450;44.518;7.466;2022-10-16T12:11:20;55.85;;;38.90;;
49548;SDS011;35450;44.518;7.466;2022-10-16T12:17:40;53.42;;;36.08;;
49548;SDS011;35450;44.518;7.466;2022-10-16T12:20:44;52.63;;;37.58;;
49548;SDS011;35450;44.518;7.466;2022-10-16T12:24:03;54.83;;;36.88;;
49548;SDS011;35450;44.518;7.466;2022-10-16T12:30:34;56.05;;;36.58;;
49548;SDS011;35450;44.518;7.466;2022-10-16T12:33:40;55.60;;;36.60;;
49548;SDS011;35450;44.518;7.466;2022-10-16T12:36:46;57.72;;;36.22;;
49548;SDS011;35450;44.518;7.466;2022-10-16T12:39:50;50.78;;;34.63;;
49548;SDS011;35450;44.518;7.466;2022-10-16T12:42:55;56.20;;;34.67;;
49548;SDS011;35450;44.518;7.466;2022-10-16T12:46:20;51.85;;;36.70;;
49548;SDS011;35450;44.518;7.466;2022-10-16T12:49:37;59.17;;;38.40;;
49548;SDS011;35450;44.518;7.466;2022-10-16T12:52:50;65.40;;;39.22;;
49548;SDS011;35450;44.518;7.466;2022-10-16T12:55:57;60.17;;;39.88;;
49548;SDS011;35450;44.518;7.466;2022-10-16T12:59:07;61.00;;;39.53;;
49548;SDS011;35450;44.518;7.466;2022-10-16T13:12:45;49.60;;;34.97;;
49548;SDS011;35450;44.518;7.466;2022-10-16T13:26:47;55.88;;;36.83;;
49548;SDS011;35450;44.518;7.466;2022-10-16T13:30:12;59.42;;;35.33;;
49548;SDS011;35450;44.518;7.466;2022-10-16T13:33:33;55.17;;;35.85;;
49548;SDS011;35450;44.518;7.466;2022-10-16T13:36:45;59.40;;;34.72;;
49548;SDS011;35450;44.518;7.466;2022-10-16T13:43:50;53.25;;;32.90;;
49548;SDS011;35450;44.518;7.466;2022-10-16T13:46:59;53.60;;;34.88;;
49548;SDS011;35450;44.518;7.466;2022-10-16T13:50:06;53.72;;;36.33;;
49548;SDS011;35450;44.518;7.466;2022-10-16T13:53:18;53.85;;;36.15;;
49548;SDS011;35450;44.518;7.466;2022-10-16T13:56:22;51.92;;;35.15;;
49548;SDS011;35450;44.518;7.466;2022-10-16T13:59:33;54.33;;;36.55;;
49548;SDS011;35450;44.518;7.466;2022-10-16T14:02:38;58.28;;;36.70;;
49548;SDS011;35450;44.518;7.466;2022-10-16T14:05:47;56.17;;;35.75;;
49548;SDS011;35450;44.518;7.466;2022-10-16T14:08:59;55.60;;;37.38;;
49548;SDS011;35450;44.518;7.466;2022-10-16T14:12:07;62.92;;;36.83;;
49548;SDS011;35450;44.518;7.466;2022-10-16T14:15:17;54.20;;;34.67;;
49548;SDS011;35450;44.518;7.466;2022-10-16T14:18:23;54.88;;;34.28;;
49548;SDS011;35450;44.518;7.466;2022-10-16T14:21:28;53.53;;;35.15;;
49548;SDS011;35450;44.518;7.466;2022-10-16T14:24:33;54.83;;;36.22;;
49548;SDS011;35450;44.518;7.466;2022-10-16T14:27:38;54.53;;;36.22;;
49548;SDS011;35450;44.518;7.466;2022-10-16T14:30:58;59.17;;;36.40;;
49548;SDS011;35450;44.518;7.466;2022-10-16T14:34:03;56.05;;;36.42;;
49548;SDS011;35450;44.518;7.466;2022-10-16T14:37:22;57.95;;;36.80;;
49548;SDS011;35450;44.518;7.466;2022-10-16T14:40:32;59.20;;;35.92;;
49548;SDS011;35450;44.518;7.466;2022-10-16T14:43:39;60.92;;;34.92;;
49548;SDS011;35450;44.518;7.466;2022-10-16T14:46:45;56.88;;;36.13;;
49548;SDS011;35450;44.518;7.466;2022-10-16T14:49:50;57.50;;;38.45;;
49548;SDS011;35450;44.518;7.466;2022-10-16T14:52:57;63.28;;;37.08;;
49548;SDS011;35450;44.518;7.466;2022-10-16T14:56:07;57.85;;;36.72;;
49548;SDS011;35450;44.518;7.466;2022-10-16T15:02:34;58.28;;;37.00;;
49548;SDS011;35450;44.518;7.466;2022-10-16T15:05:42;60.92;;;38.15;;
49548;SDS011;35450;44.518;7.466;2022-10-16T15:08:46;62.42;;;38.60;;
49548;SDS011;35450;44.518;7.466;2022-10-16T15:11:51;56.45;;;36.92;;
49548;SDS011;35450;44.518;7.466;2022-10-16T15:14:55;54.85;;;37.55;;
49548;SDS011;35450;44.518;7.466;2022-10-16T15:17:59;62.03;;;38.80;;
49548;SDS011;35450;44.518;7.466;2022-10-16T15:21:04;58.72;;;38.97;;
49548;SDS011;35450;44.518;7.466;2022-10-16T15:24:09;59.67;;;38.33;;
49548;SDS011;35450;44.518;7.466;2022-10-16T15:27:15;62.05;;;37.40;;
49548;SDS011;35450;44.518;7.466;2022-10-16T15:30:19;55.75;;;37.75;;
49548;SDS011;35450;44.518;7.466;2022-10-16T15:33:24;55.55;;;36.92;;
49548;SDS011;35450;44.518;7.466;2022-10-16T15:36:33;53.47;;;37.47;;
49548;SDS011;35450;44.518;7.466;2022-10-16T15:39:40;55.25;;;37.60;;
49548;SDS011;35450;44.518;7.466;2022-10-16T15:42:44;66.78;;;39.25;;
49548;SDS011;35450;44.518;7.466;2022-10-16T15:46:01;57.75;;;38.35;;
49548;SDS011;35450;44.518;7.466;2022-10-16T15:49:08;59.45;;;37.85;;
49548;SDS011;35450;44.518;7.466;2022-10-16T15:52:12;57.00;;;36.38;;
49548;SDS011;35450;44.518;7.466;2022-10-16T15:55:16;51.75;;;36.80;;
49548;SDS011;35450;44.518;7.466;2022-10-16T15:58:22;50.85;;;35.42;;
49548;SDS011;35450;44.518;7.466;2022-10-16T16:01:27;55.83;;;37.10;;
49548;SDS011;35450;44.518;7.466;2022-10-16T16:04:32;60.45;;;38.13;;
49548;SDS011;35450;44.518;7.466;2022-10-16T16:07:37;57.92;;;39.47;;
49548;SDS011;35450;44.518;7.466;2022-10-16T16:10:43;51.55;;;36.72;;
49548;SDS011;35450;44.518;7.466;2022-10-16T16:13:47;59.72;;;38.85;;
49548;SDS011;35450;44.518;7.466;2022-10-16T16:16:51;55.40;;;36.60;;
49548;SDS011;35450;44.518;7.466;2022-10-16T16:19:55;49.45;;;34.00;;
49548;SDS011;35450;44.518;7.466;2022-10-16T16:22:58;63.10;;;36.47;;
49548;SDS011;35450;44.518;7.466;2022-10-16T16:26:13;56.88;;;37.53;;
49548;SDS011;35450;44.518;7.466;2022-10-16T16:29:18;55.25;;;38.47;;
49548;SDS011;35450;44.518;7.466;2022-10-16T16:32:22;56.80;;;37.67;;
49548;SDS011;35450;44.518;7.466;2022-10-16T16:35:26;52.08;;;34.83;;
49548;SDS011;35450;44.518;7.466;2022-10-16T16:38:31;56.15;;;34.13;;
49548;SDS011;35450;44.518;7.466;2022-10-16T16:41:36;58.75;;;36.85;;
49548;SDS011;35450;44.518;7.466;2022-10-16T16:44:40;58.80;;;37.30;;
49548;SDS011;35450;44.518;7.466;2022-10-16T16:47:43;56.70;;;35.65;;
49548;SDS011;35450;44.518;7.466;2022-10-16T16:50:47;60.58;;;39.00;;
49548;SDS011;35450;44.518;7.466;2022-10-16T16:53:52;60.03;;;37.53;;
49548;SDS011;35450;44.518;7.466;2022-10-16T16:56:57;53.15;;;35.47;;
49548;SDS011;35450;44.518;7.466;2022-10-16T17:00:01;56.28;;;36.92;;
49548;SDS011;35450;44.518;7.466;2022-10-16T17:03:06;62.67;;;36.95;;
49548;SDS011;35450;44.518;7.466;2022-10-16T17:06:10;60.85;;;36.85;;
49548;SDS011;35450;44.518;7.466;2022-10-16T17:09:15;55.03;;;37.42;;
49548;SDS011;35450;44.518;7.466;2022-10-16T17:12:19;61.65;;;37.40;;
49548;SDS011;35450;44.518;7.466;2022-10-16T17:15:23;50.85;;;35.88;;
49548;SDS011;35450;44.518;7.466;2022-10-16T17:18:27;62.53;;;39.05;;
49548;SDS011;35450;44.518;7.466;2022-10-16T17:21:31;58.28;;;36.70;;
49548;SDS011;35450;44.518;7.466;2022-10-16T17:24:35;53.90;;;36.97;;
49548;SDS011;35450;44.518;7.466;2022-10-16T17:27:39;62.72;;;37.60;;
49548;SDS011;35450;44.518;7.466;2022-10-16T17:30:43;55.33;;;35.53;;
49548;SDS011;35450;44.518;7.466;2022-10-16T17:33:47;52.67;;;35.38;;
49548;SDS011;35450;44.518;7.466;2022-10-16T17:36:51;56.33;;;37.65;;
49548;SDS011;35450;44.518;7.466;2022-10-16T17:39:56;58.50;;;37.65;;
49548;SDS011;35450;44.518;7.466;2022-10-16T17:43:00;52.97;;;35.50;;
49548;SDS011;35450;44.518;7.466;2022-10-16T17:46:05;55.85;;;35.33;;
49548;SDS011;35450;44.518;7.466;2022-10-16T17:49:09;58.95;;;38.20;;
49548;SDS011;35450;44.518;7.466;2022-10-16T17:52:14;59.28;;;37.17;;
49548;SDS011;35450;44.518;7.466;2022-10-16T17:55:18;52.65;;;34.97;;
49548;SDS011;35450;44.518;7.466;2022-10-16T17:58:22;57.35;;;38.47;;
49548;SDS011;35450;44.518;7.466;2022-10-16T18:01:31;54.78;;;37.25;;
49548;SDS011;35450;44.518;7.466;2022-10-16T18:04:40;56.35;;;36.28;;
49548;SDS011;35450;44.518;7.466;2022-10-16T18:07:44;59.47;;;38.50;;
49548;SDS011;35450;44.518;7.466;2022-10-16T18:10:48;51.85;;;35.45;;
49548;SDS011;35450;44.518;7.466;2022-10-16T18:13:53;55.25;;;36.58;;
49548;SDS011;35450;44.518;7.466;2022-10-16T18:16:58;52.35;;;34.50;;
49548;SDS011;35450;44.518;7.466;2022-10-16T18:20:04;53.05;;;35.88;;
49548;SDS011;35450;44.518;7.466;2022-10-16T18:23:09;50.05;;;34.38;;
49548;SDS011;35450;44.518;7.466;2022-10-16T18:26:14;48.63;;;34.45;;
49548;SDS011;35450;44.518;7.466;2022-10-16T18:29:18;58.50;;;37.55;;
49548;SDS011;35450;44.518;7.466;2022-10-16T18:32:23;59.15;;;37.03;;
49548;SDS011;35450;44.518;7.466;2022-10-16T18:35:27;57.55;;;36.58;;
49548;SDS011;35450;44.518;7.466;2022-10-16T18:38:31;56.22;;;36.13;;
49548;SDS011;35450;44.518;7.466;2022-10-16T18:41:39;51.70;;;34.65;;
49548;SDS011;35450;44.518;7.466;2022-10-16T18:44:47;58.20;;;33.75;;
49548;SDS011;35450;44.518;7.466;2022-10-16T18:47:51;59.05;;;34.63;;
49548;SDS011;35450;44.518;7.466;2022-10-16T18:54:14;57.55;;;33.33;;
49548;SDS011;35450;44.518;7.466;2022-10-16T18:57:18;52.90;;;34.25;;
49548;SDS011;35450;44.518;7.466;2022-10-16T19:00:22;47.83;;;32.22;;
49548;SDS011;35450;44.518;7.466;2022-10-16T19:03:27;50.13;;;32.00;;
49548;SDS011;35450;44.518;7.466;2022-10-16T19:06:35;51.60;;;29.83;;
49548;SDS011;35450;44.518;7.466;2022-10-16T19:09:40;47.65;;;29.50;;
49548;SDS011;35450;44.518;7.466;2022-10-16T19:12:44;48.67;;;31.92;;
49548;SDS011;35450;44.518;7.466;2022-10-16T19:15:48;54.17;;;32.42;;
49548;SDS011;35450;44.518;7.466;2022-10-16T19:18:53;52.60;;;32.33;;
49548;SDS011;35450;44.518;7.466;2022-10-16T19:21:58;52.33;;;32.45;;
49548;SDS011;35450;44.518;7.466;2022-10-16T19:25:19;56.22;;;36.00;;
49548;SDS011;35450;44.518;7.466;2022-10-16T19:28:26;54.95;;;35.20;;
49548;SDS011;35450;44.518;7.466;2022-10-16T19:31:29;57.08;;;36.50;;
49548;SDS011;35450;44.518;7.466;2022-10-16T19:34:33;59.80;;;37.97;;
49548;SDS011;35450;44.518;7.466;2022-10-16T19:37:37;58.08;;;35.97;;
49548;SDS011;35450;44.518;7.466;2022-10-16T19:40:41;56.22;;;36.17;;
49548;SDS011;35450;44.518;7.466;2022-10-16T19:43:45;52.17;;;35.45;;
49548;SDS011;35450;44.518;7.466;2022-10-16T19:46:49;50.83;;;34.45;;
49548;SDS011;35450;44.518;7.466;2022-10-16T19:49:53;53.47;;;34.97;;
49548;SDS011;35450;44.518;7.466;2022-10-16T19:52:57;55.35;;;37.65;;
49548;SDS011;35450;44.518;7.466;2022-10-16T19:56:06;56.40;;;38.15;;
49548;SDS011;35450;44.518;7.466;2022-10-16T19:59:18;59.42;;;37.72;;
49548;SDS011;35450;44.518;7.466;2022-10-16T20:02:23;60.60;;;38.53;;
49548;SDS011;35450;44.518;7.466;2022-10-16T20:05:26;61.22;;;37.60;;
49548;SDS011;35450;44.518;7.466;2022-10-16T20:08:31;62.25;;;36.78;;
49548;SDS011;35450;44.518;7.466;2022-10-16T20:11:36;57.10;;;38.08;;
49548;SDS011;35450;44.518;7.466;2022-10-16T20:14:41;51.83;;;35.17;;
49548;SDS011;35450;44.518;7.466;2022-10-16T20:17:45;59.70;;;38.78;;